Aviation Digital Data Service (ADDS)

Output produced by METARs form (0346 UTC 18 June 2019)
found at http://www.aviationweather.gov/metar/data/
 
Forecast for: VOBL (BENGALURU , IN)
Text: TAF VOBL 180200Z 1803/1812 27010KT 6000 SCT012
Forecast period: 0300 to 1200 UTC 18 June 2019
Forecast type: FROM: standard forecast or significant change
Winds: from the W (270 degrees) at 12 MPH (10 knots; 5.1 m/s)
Visibility: 4 miles (6 km)
Ceiling: at least 12,000 feet AGL
Clouds: scattered clouds at 1200 feet AGL
Weather: no significant weather forecast for this period